Fruitland, Iowa
Current Conditions -  °F | °C
As of 10:15 AM on Monday 26 Jan 2015 (Local Time) from KMUT Reporting Station
Light Snow Light Snow  
Wind Chill: 18°   Ceiling: 2200
Heat Index: 27°   Visibility: 3mi
Dew Point: 23°   Wind: 8mph
Humidity: 86%   Direction: 160°SSE
Pressure: 29.93"   Gusts: NA
Location:  41.36°N, 91.13°W
Report Text: KMUT 261615Z AUTO 16007KT 3SM -SN OVC022 M03/M05 A2993 RMK AO2
Loading
Personal Weather Stations






























Interactive Weather Map New forecast layout! Learn more

10-Day Weather Forecast

Advertisements
Track Severe Weather on mobile